Time;durP1;ratioP1;P1;durP2;ratioP2;P2;SDS_P1;SDS_P2;PMS_P1;PMS_P2;Temp;Humidity;BMP_temperature;BMP_pressure;BME280_temperature;BME280_humidity;BME280_pressure;Samples;Min_cycle;Max_cycle;Signal;HPM_P1;HPM_P2
2023/06/10 00:00:23;;;;;;;6.88;5.18;;;;;;;22.66;44.54;100182.53;4100135;29;19929;-61
2023/06/10 00:02:26;;;;;;;7.95;5.30;;;;;;;22.67;44.60;100178.94;4100174;29;20074;-61
2023/06/10 00:04:29;;;;;;;6.65;5.32;;;;;;;22.64;44.77;100176.41;4101007;28;20247;-61
2023/06/10 00:06:35;;;;;;;8.52;5.40;;;;;;;22.61;44.60;100179.19;4101159;28;20049;-61
2023/06/10 00:08:39;;;;;;;7.95;5.20;;;;;;;22.60;44.35;100185.41;4101207;29;20043;-61
2023/06/10 00:10:42;;;;;;;7.47;5.75;;;;;;;22.56;44.31;100183.84;4101073;29;20050;-61
2023/06/10 00:12:46;;;;;;;7.88;5.28;;;;;;;22.54;44.48;100180.34;4099942;29;20045;-61
2023/06/10 00:14:51;;;;;;;8.50;5.10;;;;;;;22.51;44.45;100177.84;4100808;29;20472;-61
2023/06/10 00:16:55;;;;;;;6.25;5.18;;;;;;;22.49;44.39;100175.25;4099698;29;20039;-61
2023/06/10 00:19:01;;;;;;;7.43;5.40;;;;;;;22.48;44.66;100180.63;4100932;29;20126;-61
2023/06/10 00:21:04;;;;;;;12.05;5.40;;;;;;;22.44;44.65;100181.66;4100975;29;20043;-61
2023/06/10 00:23:09;;;;;;;5.95;4.85;;;;;;;22.42;44.54;100180.88;4099745;29;20516;-61
2023/06/10 00:25:12;;;;;;;6.95;4.68;;;;;;;22.40;44.47;100180.03;4100666;29;20412;-61
2023/06/10 00:27:15;;;;;;;9.65;5.05;;;;;;;22.40;44.62;100177.38;4100827;29;20117;-61
2023/06/10 00:29:20;;;;;;;7.75;5.78;;;;;;;22.39;44.32;100181.00;4099739;29;20039;-61
2023/06/10 00:31:23;;;;;;;7.00;4.93;;;;;;;22.36;44.18;100179.31;4083762;29;20079;-61
2023/06/10 00:33:26;;;;;;;8.70;5.85;;;;;;;22.35;44.37;100180.22;4099706;29;20043;-61
2023/06/10 00:35:29;;;;;;;10.05;5.32;;;;;;;22.36;43.98;100178.47;4099393;29;20050;-61
2023/06/10 00:37:32;;;;;;;7.13;5.10;;;;;;;22.36;44.16;100183.75;4099614;29;20080;-61
2023/06/10 00:39:35;;;;;;;6.88;5.13;;;;;;;22.37;44.37;100185.47;4100726;28;20043;-61
2023/06/10 00:41:39;;;;;;;7.50;5.38;;;;;;;22.37;44.15;100185.47;4100769;29;20122;-61
2023/06/10 00:43:42;;;;;;;6.78;5.65;;;;;;;22.43;44.00;100182.59;4083448;29;20040;-61
2023/06/10 00:45:46;;;;;;;9.82;5.68;;;;;;;22.45;44.41;100188.69;4099379;29;20039;-61
2023/06/10 00:47:49;;;;;;;7.35;5.55;;;;;;;22.49;44.14;100196.44;4083498;29;20048;-61
2023/06/10 00:49:55;;;;;;;10.02;6.70;;;;;;;22.54;43.81;100188.31;4083692;29;20052;-61
2023/06/10 00:52:01;;;;;;;9.30;6.82;;;;;;;22.63;43.63;100189.72;4099380;29;20054;-61
2023/06/10 00:54:05;;;;;;;11.23;6.70;;;;;;;22.64;43.56;100186.16;4099042;29;20125;-61
2023/06/10 00:56:08;;;;;;;10.52;7.07;;;;;;;22.69;43.47;100185.97;4099314;29;20047;-61
2023/06/10 00:58:12;;;;;;;8.45;6.15;;;;;;;22.67;43.74;100186.88;4083319;29;20059;-61
2023/06/10 01:00:16;;;;;;;8.30;6.37;;;;;;;22.66;43.88;100187.84;4100376;29;20470;-61
2023/06/10 01:02:20;;;;;;;8.50;6.18;;;;;;;22.64;43.98;100192.31;4099230;29;20128;-61
2023/06/10 01:04:23;;;;;;;8.32;6.55;;;;;;;22.63;43.73;100193.25;4067063;29;20044;-61
2023/06/10 01:06:37;;;;;;;7.43;6.30;;;;;;;22.61;43.75;100195.09;4099273;29;20521;-61
2023/06/10 01:08:48;;;;;;;8.98;5.68;;;;;;;22.59;44.11;100196.94;4099182;29;20058;-61
2023/06/10 01:10:54;;;;;;;8.95;6.72;;;;;;;22.55;44.37;100190.03;4099124;29;20094;-61
2023/06/10 01:13:02;;;;;;;7.20;5.85;;;;;;;22.53;44.55;100197.19;4083288;29;20130;-61
2023/06/10 01:15:07;;;;;;;7.55;6.03;;;;;;;22.53;44.63;100197.19;4067182;29;20104;-61
2023/06/10 01:17:11;;;;;;;10.98;6.07;;;;;;;22.52;44.75;100200.75;4100171;29;20413;-61
2023/06/10 01:19:17;;;;;;;9.07;6.13;;;;;;;22.50;45.18;100199.94;4100112;29;20493;-61
2023/06/10 01:21:24;;;;;;;10.73;6.25;;;;;;;22.47;45.54;100197.41;4099059;29;20047;-61
2023/06/10 01:23:28;;;;;;;9.75;6.93;;;;;;;22.47;45.21;100200.94;4082893;29;20047;-61
2023/06/10 01:25:32;;;;;;;7.50;5.95;;;;;;;22.41;45.75;100197.66;4098638;29;20055;-61
2023/06/10 01:27:39;;;;;;;10.30;6.57;;;;;;;22.44;45.35;100200.19;4082892;29;20048;-61
2023/06/10 01:29:48;;;;;;;7.90;6.10;;;;;;;22.44;45.00;100202.84;4082999;29;20123;-61
2023/06/10 01:32:03;;;;;;;8.75;6.50;;;;;;;22.44;44.96;100205.50;4098920;29;20580;-61
2023/06/10 01:34:10;;;;;;;7.53;6.05;;;;;;;22.41;45.16;100203.81;4098503;29;20126;-61
2023/06/10 01:36:16;;;;;;;9.32;6.32;;;;;;;22.40;45.05;100204.75;4099965;29;20126;-61
2023/06/10 01:38:21;;;;;;;9.40;6.00;;;;;;;22.42;45.05;100199.41;4083065;29;20440;-61
2023/06/10 01:40:26;;;;;;;8.43;5.93;;;;;;;22.42;44.93;100202.06;4082785;29;20082;-61
2023/06/10 01:42:29;;;;;;;8.82;6.00;;;;;;;22.39;44.87;100199.53;4098653;29;20504;-61
2023/06/10 01:44:33;;;;;;;9.13;5.67;;;;;;;22.40;45.07;100201.22;4082248;29;20050;-61
2023/06/10 01:46:36;;;;;;;6.90;5.38;;;;;;;22.37;44.55;100204.00;4082730;29;20287;-61
2023/06/10 01:48:39;;;;;;;7.45;5.82;;;;;;;22.34;44.26;100198.81;4082784;29;20123;-61
2023/06/10 01:50:43;;;;;;;8.80;6.10;;;;;;;22.35;44.01;100201.41;4082209;29;20047;-61
2023/06/10 01:52:46;;;;;;;5.78;4.55;;;;;;;22.32;44.18;100198.88;4098601;29;20043;-60
2023/06/10 01:54:50;;;;;;;8.13;6.28;;;;;;;22.35;44.42;100203.22;4098024;29;20039;-61
2023/06/10 01:56:53;;;;;;;6.57;5.47;;;;;;;22.35;43.89;100209.38;4082725;29;20433;-61
2023/06/10 01:58:58;;;;;;;6.68;5.20;;;;;;;22.33;43.61;100197.09;4098462;29;20079;-61
2023/06/10 02:01:02;;;;;;;10.63;5.25;;;;;;;22.34;43.44;100204.13;4082884;29;20048;-61
2023/06/10 02:03:05;;;;;;;8.15;5.40;;;;;;;22.30;43.40;100206.88;4098468;29;20086;-61
2023/06/10 02:05:08;;;;;;;7.82;5.78;;;;;;;22.31;43.20;100198.00;4082108;29;20048;-61
2023/06/10 02:07:12;;;;;;;7.55;5.90;;;;;;;22.37;42.71;100194.28;4099770;29;20054;-61
2023/06/10 02:09:15;;;;;;;7.82;5.07;;;;;;;22.40;42.73;100207.41;4082454;29;20083;-61
2023/06/10 02:11:19;;;;;;;7.40;5.82;;;;;;;22.34;42.78;100205.00;4098172;29;20051;-61
2023/06/10 02:13:22;;;;;;;8.27;5.95;;;;;;;22.36;42.76;100195.22;4090825;29;20050;-61
2023/06/10 02:15:29;;;;;;;8.55;5.00;;;;;;;22.33;42.97;100205.03;4099119;29;20556;-61
2023/06/10 02:17:32;;;;;;;8.68;4.95;;;;;;;22.26;42.96;100199.94;4099489;29;20521;-61
2023/06/10 02:19:36;;;;;;;6.53;4.53;;;;;;;22.28;42.97;100206.06;4098318;29;20142;-61
2023/06/10 02:21:39;;;;;;;8.75;5.28;;;;;;;22.33;42.91;100207.69;4098321;29;20501;-61
2023/06/10 02:23:42;;;;;;;6.93;4.63;;;;;;;22.29;42.90;100212.22;4099470;29;20156;-61
2023/06/10 02:25:45;;;;;;;7.28;5.13;;;;;;;22.36;42.92;100202.31;4094833;29;20055;-61
2023/06/10 02:27:49;;;;;;;7.82;5.15;;;;;;;22.35;42.73;100209.38;4078202;29;20036;-61
2023/06/10 02:29:53;;;;;;;7.50;5.28;;;;;;;22.33;42.72;100205.91;4098146;29;20443;-61
2023/06/10 02:31:56;;;;;;;6.35;5.10;;;;;;;22.31;42.73;100203.31;4098435;29;20047;-61
2023/06/10 02:34:00;;;;;;;6.40;5.23;;;;;;;22.25;42.95;100211.50;4066351;29;20052;-61
2023/06/10 02:36:03;;;;;;;7.47;5.65;;;;;;;22.32;42.80;100214.78;4098104;29;20122;-61
2023/06/10 02:38:06;;;;;;;8.27;5.13;;;;;;;22.34;42.64;100212.97;4098249;29;20066;-61
2023/06/10 02:40:12;;;;;;;7.88;4.25;;;;;;;22.28;42.91;100210.50;4082293;29;20043;-61
2023/06/10 02:42:15;;;;;;;7.25;4.68;;;;;;;22.22;43.18;100216.03;4098346;29;20035;-61
2023/06/10 02:44:20;;;;;;;5.85;4.68;;;;;;;22.21;43.24;100219.59;4097869;29;20043;-61
2023/06/10 02:46:23;;;;;;;5.57;4.50;;;;;;;22.19;43.97;100218.78;4082170;29;20047;-61
2023/06/10 02:48:29;;;;;;;5.93;5.05;;;;;;;22.19;43.65;100219.66;4098092;29;20043;-61
2023/06/10 02:50:32;;;;;;;8.15;4.97;;;;;;;22.18;43.76;100225.00;4082190;29;20115;-61
2023/06/10 02:52:58;;;;;;;7.20;5.60;;;;;;;22.15;44.42;100220.69;4091263;29;20066;-60
2023/06/10 02:55:01;;;;;;;6.93;4.93;;;;;;;22.11;44.54;100221.75;4097736;29;20110;-61
2023/06/10 02:57:05;;;;;;;7.60;5.20;;;;;;;22.09;44.15;100232.38;4082120;29;20074;-61
2023/06/10 02:59:08;;;;;;;9.30;5.72;;;;;;;22.10;43.97;100226.16;4082298;29;20135;-61
2023/06/10 03:01:13;;;;;;;10.60;5.95;;;;;;;22.12;43.97;100229.63;4082190;29;20035;-61
2023/06/10 03:03:27;;;;;;;8.48;5.75;;;;;;;22.08;44.17;100227.16;4100427;29;20047;-60
2023/06/10 03:05:38;;;;;;;8.77;5.82;;;;;;;22.08;44.49;100228.00;4084771;29;20036;-61
2023/06/10 03:07:42;;;;;;;9.05;6.53;;;;;;;22.04;44.86;100231.69;4100927;29;20043;-60
2023/06/10 03:09:45;;;;;;;11.02;5.68;;;;;;;22.03;44.66;100227.28;4100953;29;20043;-61
2023/06/10 03:11:49;;;;;;;11.45;6.15;;;;;;;22.03;45.02;100229.09;4085003;29;20139;-60
2023/06/10 03:13:53;;;;;;;7.60;5.80;;;;;;;22.00;45.42;100229.22;4100493;29;20050;-61
2023/06/10 03:15:57;;;;;;;7.10;5.75;;;;;;;21.93;45.99;100226.78;4084963;29;20564;-60
2023/06/10 03:18:03;;;;;;;;;;;;;;;21.80;47.46;100233.47;4085218;29;20134;-61
2023/06/10 03:20:10;;;;;;;9.05;5.35;;;;;;;21.78;47.59;100235.28;4069116;29;19922;-61
2023/06/10 03:22:15;;;;;;;6.82;5.25;;;;;;;21.78;47.65;100230.84;4084819;29;20067;-61
2023/06/10 03:24:26;;;;;;;10.15;6.57;;;;;;;21.82;46.76;100236.91;4099985;29;20424;-60
2023/06/10 03:26:28;;;;;;;7.72;5.28;;;;;;;21.77;47.22;100233.53;4068533;29;20079;-61
2023/06/10 03:28:31;;;;;;;8.68;6.55;;;;;;;21.76;47.26;100237.13;4084430;29;20043;-61
2023/06/10 03:30:34;;;;;;;14.05;6.05;;;;;;;21.70;47.26;100238.22;4100643;29;20078;-60
2023/06/10 03:32:37;;;;;;;9.70;7.25;;;;;;;21.70;47.14;100239.97;4100622;29;20039;-61
2023/06/10 03:34:45;;;;;;;9.18;6.57;;;;;;;21.70;47.10;100239.97;4100189;29;20457;-61
2023/06/10 03:36:49;;;;;;;8.07;6.82;;;;;;;21.67;47.04;100243.59;4084669;29;20047;-61
2023/06/10 03:38:53;;;;;;;7.15;6.25;;;;;;;21.65;47.37;100241.94;4084599;29;20411;-61
2023/06/10 03:40:57;;;;;;;10.05;6.68;;;;;;;21.60;48.06;100248.25;4068772;29;20052;-61
2023/06/10 03:43:00;;;;;;;8.63;5.95;;;;;;;21.59;48.44;100245.66;4084586;29;20039;-60
2023/06/10 03:45:05;;;;;;;11.50;6.80;;;;;;;21.58;47.97;100250.09;4100174;29;20043;-61
2023/06/10 03:47:10;;;;;;;9.70;7.22;;;;;;;21.53;47.88;100244.06;4100512;29;20039;-61
2023/06/10 03:49:12;;;;;;;10.85;6.75;;;;;;;;;;4084429;29;20047;-60
2023/06/10 03:51:17;;;;;;;8.50;6.57;;;;;;;21.45;48.80;100246.97;4084480;29;20075;-60
2023/06/10 03:53:27;;;;;;;8.40;6.80;;;;;;;21.47;48.42;100249.56;4100291;29;20497;-61
2023/06/10 03:55:31;;;;;;;10.20;6.97;;;;;;;21.48;48.53;100256.59;4084134;29;20095;-60
2023/06/10 03:57:35;;;;;;;9.38;6.28;;;;;;;21.49;48.36;100245.06;4084349;29;20429;-61
2023/06/10 03:59:38;;;;;;;8.63;6.88;;;;;;;21.46;48.86;100247.81;4100240;29;20051;-61
2023/06/10 04:01:41;;;;;;;8.50;6.60;;;;;;;21.44;49.12;100252.31;4100289;29;20047;-61
2023/06/10 04:03:44;;;;;;;10.65;6.80;;;;;;;21.45;48.92;100248.75;4099944;29;20110;-61
2023/06/10 04:05:47;;;;;;;12.35;7.25;;;;;;;21.34;49.57;100248.25;4101256;29;20063;-61
2023/06/10 04:07:51;;;;;;;7.65;6.32;;;;;;;21.32;49.54;100250.06;4100085;29;20103;-61
2023/06/10 04:09:54;;;;;;;;;;;;;;;21.25;49.56;100252.91;4100337;29;20135;-61
2023/06/10 04:11:57;;;;;;;12.43;7.57;;;;;;;21.31;49.28;100246.56;4101207;29;20013;-60
2023/06/10 04:14:00;;;;;;;12.77;8.05;;;;;;;21.38;49.17;100247.25;4083421;29;20051;-61
2023/06/10 04:16:04;;;;;;;10.07;7.72;;;;;;;21.34;49.22;100249.09;4084067;29;20135;-60
2023/06/10 04:18:07;;;;;;;12.98;8.25;;;;;;;21.37;48.94;100251.63;4093488;29;20502;-61
2023/06/10 04:20:11;;;;;;;9.75;7.85;;;;;;;21.39;48.92;100256.88;4083599;29;20039;-61
2023/06/10 04:22:18;;;;;;;9.85;7.60;;;;;;;21.38;49.20;100252.53;4067486;29;20048;-61
2023/06/10 04:24:22;;;;;;;10.77;7.13;;;;;;;21.39;49.10;100263.06;4081716;29;20070;-60
2023/06/10 04:26:25;;;;;;;;;;;;;;;21.28;49.57;100257.25;4101898;28;20048;-61
2023/06/10 04:28:28;;;;;;;10.70;8.10;;;;;;;21.37;49.52;100262.22;4083763;29;19946;-61
2023/06/10 04:30:32;;;;;;;13.77;9.63;;;;;;;21.43;49.26;100263.78;4083688;29;20051;-61
2023/06/10 04:32:36;;;;;;;10.68;8.77;;;;;;;21.50;49.14;100272.41;4084022;29;20564;-60
2023/06/10 04:34:41;;;;;;;10.00;7.93;;;;;;;21.44;49.39;100278.75;4099695;28;20113;-61
2023/06/10 04:36:43;;;;;;;11.45;7.47;;;;;;;21.42;49.55;100270.88;4079216;29;20088;-61
2023/06/10 04:38:47;;;;;;;12.45;8.48;;;;;;;21.46;49.47;100268.97;4102643;28;20102;-61
2023/06/10 04:40:51;;;;;;;13.38;9.25;;;;;;;21.52;49.82;100271.44;4099563;29;20047;-61
2023/06/10 04:42:56;;;;;;;11.25;8.95;;;;;;;21.56;49.32;100274.84;4106064;28;20047;-61
2023/06/10 04:44:59;;;;;;;12.18;7.88;;;;;;;21.55;49.42;100275.75;4115100;28;20133;-61
2023/06/10 04:47:02;;;;;;;9.90;7.60;;;;;;;21.55;49.56;100275.75;4083306;29;20036;-61
2023/06/10 04:49:05;;;;;;;10.77;8.85;;;;;;;21.56;49.46;100272.22;4099417;28;20039;-61
2023/06/10 04:51:08;;;;;;;16.63;8.18;;;;;;;21.57;49.32;100274.81;4100645;29;20054;-61
2023/06/10 04:53:11;;;;;;;10.32;8.27;;;;;;;21.61;49.18;100273.78;4098991;29;20122;-61
2023/06/10 04:55:18;;;;;;;11.45;8.35;;;;;;;21.62;49.38;100269.34;4094566;29;20071;-61
2023/06/10 04:57:22;;;;;;;11.25;8.25;;;;;;;21.66;49.06;100278.91;4100436;29;20036;-61
2023/06/10 04:59:25;;;;;;;13.40;8.55;;;;;;;21.59;49.51;100269.47;4099391;29;20039;-61
2023/06/10 05:01:28;;;;;;;12.18;9.20;;;;;;;21.66;49.71;100272.78;4100475;29;20465;-61
2023/06/10 05:03:31;;;;;;;11.02;8.02;;;;;;;21.68;49.37;100278.84;4100285;28;20053;-61
2023/06/10 05:05:34;;;;;;;16.83;9.40;;;;;;;21.72;49.25;100269.91;4099936;28;20043;-61
2023/06/10 05:07:37;;;;;;;11.73;9.15;;;;;;;21.70;49.27;100275.25;4100378;28;20038;-61
2023/06/10 05:09:40;;;;;;;12.27;8.90;;;;;;;21.75;49.38;100272.44;4100273;28;20527;-61
2023/06/10 05:11:43;;;;;;;12.40;8.88;;;;;;;21.73;49.59;100274.28;4099009;28;20055;-61
2023/06/10 05:13:47;;;;;;;15.68;9.63;;;;;;;21.80;49.27;100281.09;4082948;29;20052;-61
2023/06/10 05:15:50;;;;;;;13.25;8.75;;;;;;;21.81;49.08;100284.59;4100208;29;20050;-61
2023/06/10 05:17:53;;;;;;;12.60;10.38;;;;;;;21.81;49.47;100285.44;4100124;29;20047;-61
2023/06/10 05:19:56;;;;;;;12.82;9.75;;;;;;;21.83;49.49;100280.09;4100103;28;20528;-61
2023/06/10 05:21:59;;;;;;;12.48;9.63;;;;;;;21.79;49.35;100290.78;4083172;29;20047;-60
2023/06/10 05:24:02;;;;;;;12.10;8.93;;;;;;;21.84;49.27;100287.97;4099764;29;20493;-61
2023/06/10 05:26:05;;;;;;;16.42;9.25;;;;;;;21.91;49.43;100284.19;4099244;28;20039;-61
2023/06/10 05:28:09;;;;;;;10.73;9.45;;;;;;;21.97;49.42;100291.06;4100185;29;20047;-61
2023/06/10 05:30:18;;;;;;;11.02;8.75;;;;;;;22.05;49.07;100286.38;4100032;29;20049;-61
2023/06/10 05:32:21;;;;;;;;;;;;;;;22.04;49.35;100286.41;4099115;29;20098;-61
2023/06/10 05:34:24;;;;;;;11.40;7.85;;;;;;;22.07;49.36;100288.94;4082565;29;19927;-61
2023/06/10 05:36:27;;;;;;;12.63;8.55;;;;;;;22.15;49.00;100292.16;4099920;29;20043;-61
2023/06/10 05:38:30;;;;;;;11.45;8.63;;;;;;;22.23;49.03;100287.47;4099762;28;20501;-61
2023/06/10 05:40:33;;;;;;;14.60;10.27;;;;;;;22.35;48.48;100295.91;4099900;29;20072;-61
2023/06/10 05:42:36;;;;;;;10.98;8.57;;;;;;;22.31;48.29;100288.06;4099859;28;20062;-61
2023/06/10 05:44:39;;;;;;;13.63;8.80;;;;;;;22.38;48.30;100293.16;4099475;29;20138;-61
2023/06/10 05:46:43;;;;;;;11.80;8.95;;;;;;;22.44;48.39;100299.09;4098419;29;20047;-61
2023/06/10 05:48:46;;;;;;;11.07;9.25;;;;;;;22.49;48.14;100299.75;4099677;28;20039;-61
2023/06/10 05:50:49;;;;;;;9.90;8.77;;;;;;;22.57;47.84;100304.75;4099759;28;20049;-61
2023/06/10 05:52:53;;;;;;;13.85;9.32;;;;;;;22.61;47.84;100306.38;4098394;29;20039;-61
2023/06/10 05:54:56;;;;;;;10.82;8.48;;;;;;;22.66;47.36;100307.06;4099215;28;20090;-61
2023/06/10 05:56:59;;;;;;;14.10;9.15;;;;;;;22.64;47.62;100308.06;4099755;29;20050;-61
2023/06/10 05:59:02;;;;;;;12.80;9.50;;;;;;;22.76;47.49;100306.72;4099485;29;20047;-61
2023/06/10 06:01:05;;;;;;;9.77;8.30;;;;;;;22.83;47.09;100305.56;4099641;29;20662;-61
2023/06/10 06:03:10;;;;;;;11.82;8.82;;;;;;;22.79;47.27;100314.53;4098413;29;20051;-61
2023/06/10 06:05:13;;;;;;;12.35;8.10;;;;;;;22.82;47.07;100312.66;4099204;29;20047;-61
2023/06/10 06:07:16;;;;;;;12.20;8.77;;;;;;;22.89;47.50;100307.09;4099502;29;20044;-61
2023/06/10 06:09:19;;;;;;;11.50;8.80;;;;;;;22.98;47.29;100306.72;4099546;29;20122;-61
2023/06/10 06:11:22;;;;;;;13.90;9.27;;;;;;;23.13;46.99;100311.47;4099519;29;20074;-61
2023/06/10 06:13:26;;;;;;;10.73;7.72;;;;;;;23.10;46.29;100313.31;4098230;29;20055;-61
2023/06/10 06:15:28;;;;;;;10.52;8.57;;;;;;;23.21;46.51;100308.47;4099101;28;20043;-61
2023/06/10 06:17:31;;;;;;;12.25;8.43;;;;;;;23.30;46.17;100309.91;4099521;29;20050;-61
2023/06/10 06:19:35;;;;;;;10.00;8.60;;;;;;;23.34;45.79;100303.53;4099503;29;20382;-61
2023/06/10 06:21:38;;;;;;;11.30;8.27;;;;;;;23.41;45.85;100305.03;4099773;29;20102;-61
2023/06/10 06:23:41;;;;;;;14.80;8.88;;;;;;;23.58;45.10;100298.97;4099326;29;20043;-61
2023/06/10 06:25:44;;;;;;;9.23;7.00;;;;;;;23.56;45.24;100307.97;4098024;29;20047;-61
2023/06/10 06:27:47;;;;;;;9.88;7.32;;;;;;;23.56;45.77;100306.16;4097653;28;20039;-61
2023/06/10 06:29:50;;;;;;;12.75;8.00;;;;;;;23.67;45.02;100305.69;4082433;29;20091;-61
2023/06/10 06:31:53;;;;;;;9.75;6.95;;;;;;;23.76;44.27;100304.44;4098224;29;20043;-61
2023/06/10 06:33:59;;;;;;;10.93;7.68;;;;;;;23.88;44.39;100307.44;4099193;29;20505;-61
2023/06/10 06:36:04;;;;;;;8.05;7.13;;;;;;;24.01;43.79;100317.56;4099520;28;20441;-61
2023/06/10 06:38:07;;;;;;;9.73;5.63;;;;;;;23.95;44.48;100313.38;4102489;29;20138;-61
2023/06/10 06:40:13;;;;;;;8.13;6.65;;;;;;;24.11;44.21;100312.69;4101400;29;20063;-61
2023/06/10 06:42:16;;;;;;;8.85;6.40;;;;;;;24.21;43.69;100314.88;4085351;29;20076;-61
2023/06/10 06:44:52;;;;;;;8.50;7.47;;;;;;;24.34;42.96;100315.19;4059508;29;20454;-61
2023/06/10 06:46:54;;;;;;;9.00;6.00;;;;;;;24.38;43.39;100319.41;4085288;29;20043;-61
2023/06/10 06:48:57;;;;;;;8.88;6.22;;;;;;;24.46;43.29;100320.84;4101121;29;20051;-61
2023/06/10 06:51:00;;;;;;;7.03;5.32;;;;;;;24.55;43.68;100317.78;4085406;29;20054;-61
2023/06/10 06:53:05;;;;;;;8.65;5.75;;;;;;;24.69;42.07;100318.03;4085340;29;20071;-61
2023/06/10 06:55:09;;;;;;;8.00;5.53;;;;;;;24.74;42.00;100323.97;4101904;29;20081;-61
2023/06/10 06:57:12;;;;;;;7.75;5.95;;;;;;;24.83;41.58;100316.50;4102665;29;20039;-61
2023/06/10 06:59:16;;;;;;;6.93;4.75;;;;;;;24.89;41.63;100313.56;4101080;29;20039;-61
2023/06/10 07:01:19;;;;;;;6.43;4.68;;;;;;;24.92;40.98;100310.75;4085065;29;20577;-61
2023/06/10 07:03:22;;;;;;;5.68;4.45;;;;;;;25.00;41.07;100311.25;4102082;29;20047;-61
2023/06/10 07:05:27;;;;;;;7.72;5.20;;;;;;;25.06;41.86;100316.25;4100648;29;20058;-61
2023/06/10 07:07:30;;;;;;;9.15;4.47;;;;;;;25.13;40.98;100313.31;4101983;29;20532;-61
2023/06/10 07:09:34;;;;;;;5.60;4.57;;;;;;;25.23;41.00;100314.56;4102060;29;20095;-61
2023/06/10 07:11:37;;;;;;;6.57;4.53;;;;;;;25.33;41.39;100313.22;4102114;29;20275;-61
2023/06/10 07:13:40;;;;;;;8.57;3.92;;;;;;;25.36;40.41;100315.72;4101689;29;20061;-61
2023/06/10 07:15:42;;;;;;;7.05;4.22;;;;;;;25.41;40.42;100315.50;4101709;29;20050;-61
2023/06/10 07:17:45;;;;;;;5.15;4.05;;;;;;;25.50;40.43;100320.38;4100725;29;20063;-61
2023/06/10 07:19:48;;;;;;;7.65;5.35;;;;;;;25.63;39.69;100309.97;4101859;29;20043;-61
2023/06/10 07:21:51;;;;;;;9.48;4.63;;;;;;;25.66;40.04;100317.78;4101828;29;20505;-61
2023/06/10 07:23:54;;;;;;;5.95;4.20;;;;;;;25.70;39.80;100321.13;4101519;29;20039;-61
2023/06/10 07:25:58;;;;;;;5.65;3.60;;;;;;;25.79;39.85;100318.88;4084791;29;20055;-61
2023/06/10 07:28:01;;;;;;;6.72;3.85;;;;;;;25.84;40.02;100325.78;4101714;29;20071;-61
2023/06/10 07:30:06;;;;;;;5.60;4.13;;;;;;;26.00;38.79;100325.88;4102000;29;20134;-61
2023/06/10 07:32:09;;;;;;;6.55;3.95;;;;;;;25.91;38.51;100316.53;4101750;29;20039;-61
2023/06/10 07:34:12;;;;;;;10.88;4.55;;;;;;;26.01;38.83;100317.78;4101397;29;20130;-61
2023/06/10 07:36:15;;;;;;;5.88;4.43;;;;;;;26.11;38.21;100321.69;4101700;29;20404;-61
2023/06/10 07:38:18;;;;;;;5.90;4.03;;;;;;;26.10;37.52;100317.28;4100309;29;20141;-61
2023/06/10 07:40:21;;;;;;;4.43;3.90;;;;;;;26.07;37.63;100321.94;4101577;29;20134;-61
2023/06/10 07:42:25;;;;;;;6.15;3.70;;;;;;;26.05;37.63;100315.81;4101871;29;20428;-61
2023/06/10 07:44:28;;;;;;;;;;;;;;;26.05;38.47;100318.47;4101635;29;20592;-61
2023/06/10 07:46:31;;;;;;;5.18;3.92;;;;;;;26.18;38.41;100314.25;4101562;29;20018;-61
2023/06/10 07:48:33;;;;;;;6.43;3.90;;;;;;;26.25;37.60;100315.59;4100693;28;20501;-61
2023/06/10 07:50:36;;;;;;;6.85;4.05;;;;;;;26.28;38.01;100309.25;4101467;29;20039;-61
2023/06/10 07:52:39;;;;;;;6.13;4.00;;;;;;;26.37;38.28;100307.91;4101652;29;20545;-61
2023/06/10 07:54:42;;;;;;;8.85;4.50;;;;;;;26.46;37.54;100304.75;4101056;29;20043;-61
2023/06/10 07:56:45;;;;;;;5.28;3.90;;;;;;;26.54;37.52;100307.00;4101528;29;20077;-61
2023/06/10 07:58:49;;;;;;;5.55;3.80;;;;;;;26.54;38.51;100310.50;4101481;29;20545;-61
2023/06/10 08:00:52;;;;;;;;;;;;;;;26.84;36.96;100304.47;4084819;29;20071;-61
2023/06/10 08:02:55;;;;;;;5.85;3.92;;;;;;;26.64;37.19;100305.53;4101652;29;19954;-61
2023/06/10 08:04:58;;;;;;;8.73;4.63;;;;;;;26.68;37.52;100293.78;4100872;29;20417;-61
2023/06/10 08:07:01;;;;;;;5.68;4.38;;;;;;;26.68;37.31;100300.91;4100204;29;20035;-61
2023/06/10 08:09:13;;;;;;;7.88;4.90;;;;;;;26.71;36.40;100306.94;4101005;29;20040;-61
2023/06/10 08:11:16;;;;;;;7.28;4.07;;;;;;;26.64;36.77;100302.88;4101302;29;20049;-61
2023/06/10 08:13:19;;;;;;;4.43;3.53;;;;;;;26.59;38.49;100302.25;4084088;29;20048;-61
2023/06/10 08:15:24;;;;;;;4.97;3.72;;;;;;;26.60;38.99;100309.31;4083679;29;20054;-61
2023/06/10 08:17:26;;;;;;;;;;;;;;;26.82;36.81;100299.22;4101565;29;20455;-61
2023/06/10 08:19:30;;;;;;;5.38;3.65;;;;;;;26.81;37.27;100302.81;4101048;29;19922;-61
2023/06/10 08:21:33;;;;;;;6.72;3.67;;;;;;;26.88;37.69;100297.13;4084031;29;20039;-61
2023/06/10 08:23:36;;;;;;;6.80;4.88;;;;;;;27.11;36.96;100310.00;4084002;29;20043;-61
2023/06/10 08:25:39;;;;;;;7.40;4.72;;;;;;;27.16;35.43;100307.06;4100652;29;20047;-61
2023/06/10 08:27:42;;;;;;;12.32;4.80;;;;;;;27.09;36.54;100306.59;4099602;29;20066;-61
2023/06/10 08:29:45;;;;;;;8.82;4.60;;;;;;;27.21;36.27;100305.03;4099576;29;20035;-62
2023/06/10 08:31:49;;;;;;;8.35;5.05;;;;;;;27.33;35.19;100301.66;4100767;29;20040;-61
2023/06/10 08:33:51;;;;;;;;;;;;;;;27.23;36.02;100297.78;4084007;29;20067;-61
2023/06/10 08:35:54;;;;;;;6.28;4.55;;;;;;;27.29;36.13;100304.56;4099511;29;20018;-61
2023/06/10 08:37:57;;;;;;;9.27;4.70;;;;;;;27.28;35.61;100294.84;4100839;29;20078;-61
2023/06/10 08:40:01;;;;;;;5.88;4.43;;;;;;;27.35;36.25;100306.94;4099624;29;20035;-61
2023/06/10 08:42:13;;;;;;;8.43;4.73;;;;;;;27.48;35.89;100296.38;4100737;29;20054;-62
2023/06/10 08:44:23;;;;;;;6.30;4.38;;;;;;;27.39;35.66;100288.91;4067889;29;20048;-61
2023/06/10 08:46:26;;;;;;;7.40;4.20;;;;;;;27.40;36.01;100294.16;4100617;29;20516;-61
2023/06/10 08:48:31;;;;;;;6.97;3.88;;;;;;;27.54;36.82;100293.34;4100503;29;20071;-61
2023/06/10 08:50:37;;;;;;;6.78;4.82;;;;;;;27.63;36.72;100289.28;4099397;29;20043;-61
2023/06/10 08:52:44;;;;;;;7.53;4.85;;;;;;;27.81;36.20;100289.97;4100454;29;20068;-62
2023/06/10 08:54:55;;;;;;;5.88;4.60;;;;;;;27.80;35.72;100293.56;4100131;29;20400;-62
2023/06/10 08:57:00;;;;;;;5.93;4.55;;;;;;;27.80;35.43;100281.09;4100509;29;20054;-62
2023/06/10 08:59:04;;;;;;;6.22;4.55;;;;;;;27.91;34.17;100284.94;4100339;28;20047;-62
2023/06/10 09:01:07;;;;;;;5.22;4.13;;;;;;;27.94;34.64;100287.41;4099696;29;20043;-62
2023/06/10 09:03:10;;;;;;;8.38;4.75;;;;;;;27.95;34.10;100284.66;4100556;29;20097;-62
2023/06/10 09:05:15;;;;;;;6.63;4.73;;;;;;;28.03;34.24;100281.53;4100084;29;20040;-61
2023/06/10 09:07:18;;;;;;;6.25;4.78;;;;;;;28.02;34.61;100275.31;4083264;29;20047;-62
2023/06/10 09:09:21;;;;;;;8.50;5.03;;;;;;;28.05;34.23;100295.63;4100275;29;20039;-62
2023/06/10 09:11:23;;;;;;;9.73;4.85;;;;;;;27.90;34.63;100283.19;4100226;29;20043;-62
2023/06/10 09:13:26;;;;;;;6.30;4.88;;;;;;;27.85;35.51;100276.31;4100380;29;20560;-62
2023/06/10 09:15:29;;;;;;;9.50;5.03;;;;;;;27.94;35.23;100276.72;4099934;29;20527;-62
2023/06/10 09:17:32;;;;;;;11.13;5.55;;;;;;;28.18;34.95;100277.03;4099124;29;20130;-62
2023/06/10 09:19:36;;;;;;;13.23;5.80;;;;;;;28.39;34.06;100288.19;4098503;29;20031;-62
2023/06/10 09:21:40;;;;;;;12.20;5.28;;;;;;;28.28;34.78;100283.50;4098510;29;20047;-62
2023/06/10 09:23:43;;;;;;;;;;;;;;;28.40;34.51;100276.53;4098858;29;20047;-62
2023/06/10 09:25:46;;;;;;;8.60;6.15;;;;;;;28.28;35.06;100285.34;4098353;29;19926;-62
2023/06/10 09:27:53;;;;;;;7.63;5.47;;;;;;;28.16;34.53;100285.16;4098743;29;20293;-62
2023/06/10 09:29:57;;;;;;;6.13;4.90;;;;;;;28.09;34.55;100278.47;4097214;29;20074;-62
2023/06/10 09:32:01;;;;;;;7.55;5.78;;;;;;;28.16;35.02;100274.44;4098507;29;20054;-62
2023/06/10 09:34:07;;;;;;;8.23;4.90;;;;;;;28.15;35.75;100279.91;4099236;29;20081;-62
2023/06/10 09:36:10;;;;;;;12.77;5.47;;;;;;;28.41;35.70;100272.91;4099766;29;20540;-62